createdAt,value
2023-05-09T00:01:34.982Z,1011.4
2023-05-09T00:07:54.972Z,1011.32
2023-05-09T00:14:18.121Z,1011.22
2023-05-09T00:20:37.969Z,1011.2
2023-05-09T00:27:01.041Z,1011.18
2023-05-09T00:33:21.093Z,1011.12
2023-05-09T00:39:44.022Z,1011.05
2023-05-09T00:46:04.031Z,1011.03
2023-05-09T00:52:27.150Z,1010.97
2023-05-09T00:58:46.964Z,1010.87
2023-05-09T01:05:10.028Z,1010.79
2023-05-09T01:11:30.101Z,1010.77
2023-05-09T01:17:53.023Z,1010.71
2023-05-09T01:24:12.990Z,1010.67
2023-05-09T01:30:36.127Z,1010.67
2023-05-09T01:36:55.992Z,1010.55
2023-05-09T01:43:19.006Z,1010.49
2023-05-09T01:49:39.103Z,1010.39
2023-05-09T01:56:01.998Z,1010.33
2023-05-09T02:02:22.065Z,1010.31
2023-05-09T02:08:45.157Z,1010.33
2023-05-09T02:15:05.018Z,1010.35
2023-05-09T02:21:29.163Z,1010.29
2023-05-09T02:27:48.104Z,1010.29
2023-05-09T02:34:10.983Z,1010.24
2023-05-09T02:40:31.028Z,1010.22
2023-05-09T02:46:54.119Z,1010.2
2023-05-09T02:53:13.994Z,1010.12
2023-05-09T02:59:37.034Z,1010.06
2023-05-09T03:05:57.119Z,1010
2023-05-09T03:12:19.991Z,1009.96
2023-05-09T03:18:39.998Z,1009.9
2023-05-09T03:42:28.121Z,1009.77
2023-05-09T03:48:50.992Z,1009.73
2023-05-09T03:55:11.009Z,1009.63
2023-05-09T04:01:34.134Z,1009.59
2023-05-09T04:07:53.991Z,1009.53
2023-05-09T04:14:16.985Z,1009.51
2023-05-09T04:20:37.126Z,1009.47
2023-05-09T04:26:59.989Z,1009.41
2023-05-09T04:33:19.999Z,1009.37
2023-05-09T04:39:43.129Z,1009.35
2023-05-09T04:46:03.014Z,1009.33
2023-05-09T04:52:26.065Z,1009.3
2023-05-09T04:58:46.297Z,1009.26
2023-05-09T05:05:11.862Z,1009.2
2023-05-09T05:11:28.988Z,1009.18
2023-05-09T05:17:52.219Z,1009.16
2023-05-09T05:24:12.020Z,1009.14
2023-05-09T05:30:34.987Z,1009.08
2023-05-09T05:36:55.150Z,1009.06
2023-05-09T05:43:18.003Z,1009.04
2023-05-09T05:49:37.984Z,1009
2023-05-09T05:56:01.159Z,1008.98
2023-05-09T06:02:21.008Z,1008.96
2023-05-09T06:08:44.002Z,1008.94
2023-05-09T06:15:04.096Z,1008.88
2023-05-09T06:21:27.004Z,1008.79
2023-05-09T06:27:47.007Z,1008.73
2023-05-09T06:34:10.241Z,1008.73
2023-05-09T06:40:30.024Z,1008.65
2023-05-09T06:46:52.986Z,1008.61
2023-05-09T06:53:13.136Z,1008.49
2023-05-09T06:59:36.012Z,1008.45
2023-05-09T07:05:55.977Z,1008.41
2023-05-09T07:12:19.131Z,1008.37
2023-05-09T07:18:38.998Z,1008.24
2023-05-09T07:25:01.997Z,1008.16
2023-05-09T07:31:22.177Z,1008.1
2023-05-09T07:37:45.013Z,1007.94
2023-05-09T07:44:04.988Z,1007.92
2023-05-09T07:50:28.256Z,1007.86
2023-05-09T07:56:47.991Z,1007.8
2023-05-09T08:03:11.167Z,1007.76
2023-05-09T08:09:31.124Z,1007.7
2023-05-09T08:15:54.310Z,1007.62
2023-05-09T08:22:14.264Z,1007.54
2023-05-09T08:28:37.135Z,1007.47
2023-05-09T08:34:57.039Z,1007.31
2023-05-09T08:56:51.117Z,1007.08
2023-05-09T09:03:14.160Z,1006.98
2023-05-09T09:09:34.015Z,1006.9
2023-05-09T09:15:57.123Z,1006.8
2023-05-09T09:22:16.992Z,1006.72
2023-05-09T09:28:39.980Z,1006.66
2023-05-09T09:35:00.330Z,1006.57
2023-05-09T09:41:23.076Z,1006.49
2023-05-09T09:47:43.041Z,1006.45
2023-05-09T09:54:06.133Z,1006.37
2023-05-09T10:00:26.009Z,1006.27
2023-05-09T10:06:48.989Z,1006.21
2023-05-09T10:13:09.100Z,1006.12
2023-05-09T10:19:32.011Z,1006.02
2023-05-09T10:25:52.016Z,1006
2023-05-09T10:32:15.111Z,1005.9
2023-05-09T10:38:35.009Z,1005.8
2023-05-09T10:44:58.006Z,1005.71
2023-05-09T10:51:18.101Z,1005.65
2023-05-09T10:57:41.016Z,1005.38
2023-05-09T11:04:01.295Z,1005.29
2023-05-09T11:10:25.370Z,1005.21
2023-05-09T11:16:44.999Z,1005.03
2023-05-09T11:23:07.994Z,1004.92
2023-05-09T11:29:28.106Z,1004.82
2023-05-09T11:35:51.043Z,1004.74
2023-05-09T11:42:11.014Z,1004.62
2023-05-09T11:48:34.261Z,1004.5
2023-05-09T11:54:53.991Z,1004.45
2023-05-09T12:01:16.980Z,1004.35
2023-05-09T12:07:37.103Z,1004.25
2023-05-09T12:14:00.072Z,1004.15
2023-05-09T12:20:20.055Z,1004.05
2023-05-09T12:26:43.124Z,1004.03
2023-05-09T12:33:03.020Z,1003.9
2023-05-09T12:39:26.229Z,1003.84
2023-05-09T12:45:46.352Z,1003.76
2023-05-09T12:52:09.965Z,1003.62
2023-05-09T12:58:29.083Z,1003.56
2023-05-09T13:04:52.134Z,1003.47
2023-05-09T13:11:15.982Z,1003.41
2023-05-09T13:17:35.015Z,1003.33
2023-05-09T13:23:55.192Z,1003.27
2023-05-09T13:30:18.277Z,1003.17
2023-05-09T13:36:38.038Z,1003.07
2023-05-09T13:43:01.122Z,1002.96
2023-05-09T13:49:21.026Z,1002.83
2023-05-09T13:55:44.063Z,1002.76
2023-05-09T14:17:35.184Z,1002.52
2023-05-09T14:23:58.017Z,1002.42
2023-05-09T14:30:18.025Z,1002.36
2023-05-09T14:36:41.098Z,1002.3
2023-05-09T14:43:01.144Z,1002.25
2023-05-09T14:49:24.009Z,1002.17
2023-05-09T14:55:44.109Z,1002.13
2023-05-09T15:02:07.020Z,1002.23
2023-05-09T15:08:26.979Z,1002.23
2023-05-09T15:14:50.111Z,1002.19
2023-05-09T15:21:09.992Z,1002.17
2023-05-09T15:27:33.006Z,1002.11
2023-05-09T15:33:53.124Z,1002.21
2023-05-09T15:40:16.135Z,1002.27
2023-05-09T15:46:36.063Z,1002.29
2023-05-09T15:52:59.115Z,1002.27
2023-05-09T15:59:19.027Z,1002.25
2023-05-09T16:05:42.007Z,1002.19
2023-05-09T16:12:02.020Z,1002.19
2023-05-09T16:18:25.016Z,1002.17
2023-05-09T16:24:44.990Z,1002.13
2023-05-09T16:31:08.138Z,1002.11
2023-05-09T16:37:27.994Z,1002.09
2023-05-09T16:43:51.001Z,1002.05
2023-05-09T16:50:11.066Z,1001.97
2023-05-09T16:56:33.991Z,1001.93
2023-05-09T17:02:54.016Z,1001.91
2023-05-09T17:09:17.137Z,1001.91
2023-05-09T17:15:37.012Z,1001.93
2023-05-09T17:21:59.996Z,1001.91
2023-05-09T17:28:20.127Z,1001.89
2023-05-09T17:34:42.985Z,1001.82
2023-05-09T17:41:03.032Z,1001.74
2023-05-09T17:47:26.175Z,1001.68
2023-05-09T17:53:45.991Z,1001.64
2023-05-09T18:00:08.996Z,1001.56
2023-05-09T18:06:29.153Z,1001.54
2023-05-09T18:12:52.027Z,1001.48
2023-05-09T18:19:11.992Z,1001.4
2023-05-09T18:25:35.109Z,1001.36
2023-05-09T18:31:55.025Z,1001.36
2023-05-09T18:38:17.975Z,1001.31
2023-05-09T18:44:38.139Z,1001.31
2023-05-09T18:51:00.996Z,1001.31
2023-05-09T18:57:20.978Z,1001.33
2023-05-09T19:03:44.151Z,1001.33
2023-05-09T19:10:04.009Z,1001.29
2023-05-09T19:16:27.018Z,1001.29
2023-05-09T19:22:47.002Z,1001.29
2023-05-09T19:39:15.004Z,1001.27
2023-05-09T19:45:34.980Z,1001.29
2023-05-09T19:51:57.986Z,1001.25
2023-05-09T19:58:18.131Z,1001.33
2023-05-09T20:04:41.057Z,1001.4
2023-05-09T20:11:00.986Z,1001.42
2023-05-09T20:17:24.038Z,1001.5
2023-05-09T20:23:43.986Z,1001.56
2023-05-09T20:30:06.981Z,1001.58
2023-05-09T20:36:27.004Z,1001.6
2023-05-09T20:42:50.001Z,1001.6
2023-05-09T20:49:09.988Z,1001.6
2023-05-09T20:55:33.024Z,1001.62
2023-05-09T21:01:53.024Z,1001.62
2023-05-09T21:08:15.979Z,1001.62
2023-05-09T21:14:36.023Z,1001.62
2023-05-09T21:20:58.982Z,1001.66
2023-05-09T21:27:19.013Z,1001.7
2023-05-09T21:33:42.016Z,1001.7
2023-05-09T21:40:03.479Z,1001.7
2023-05-09T21:46:25.041Z,1001.74
2023-05-09T21:52:45.006Z,1001.72
2023-05-09T21:59:08.010Z,1001.7
2023-05-09T22:22:05.034Z,1001.7
2023-05-09T22:28:24.972Z,1001.72
2023-05-09T22:34:47.984Z,1001.72
2023-05-09T22:41:08.029Z,1001.7
2023-05-09T22:47:31.022Z,1001.72
2023-05-09T22:53:50.997Z,1001.72
2023-05-09T23:00:14.171Z,1001.74
2023-05-09T23:06:33.984Z,1001.72
2023-05-09T23:12:56.989Z,1001.72
2023-05-09T23:19:17.030Z,1001.74
2023-05-09T23:25:39.973Z,1001.72
2023-05-09T23:32:00.006Z,1001.72
2023-05-09T23:38:23.009Z,1001.74
2023-05-09T23:44:43.043Z,1001.74
2023-05-09T23:51:06.009Z,1001.76
2023-05-09T23:57:26.005Z,1001.78
